Terminal Aerodrome Forecast
Issued by NWS

Home | Current Version | Previous Version | Graphics & Text | Print | Product List | Glossary On
Versions: 1 2 3 4 5 6 7 8 9 10 11 12 13 14 15 16 17 18 19 20 21
000
FTUS43 KMPX 212300
TAFAXN
TAF
KAXN 212335Z 2200/2224 15015KT P6SM SCT040 BKN100
     FM220500 15008KT P6SM VCSH SCT060 OVC120
      TEMPO 2205/2207 -TSRA BKN050CB OVC100
     FM220800 26005KT 6SM BR SCT030 BKN080
     FM221000 30009G16KT P6SM SCT030 BKN080
     FM221300 32017G24KT P6SM SCT020 BKN250=

USA.gov is the U.S. government's official web portal to all federal, state and local government web resources and services.